createdAt,value
2022-10-28T00:02:09.895Z,101465.03
2022-10-28T00:06:28.111Z,101468.56
2022-10-28T00:10:39.713Z,101470.44
2022-10-28T00:14:51.233Z,101481.53
2022-10-28T00:19:04.649Z,101471.09
2022-10-28T00:23:16.194Z,101469.69
2022-10-28T00:27:29.798Z,101473.94
2022-10-28T00:31:41.962Z,101468.41
2022-10-28T00:35:53.525Z,101470.25
2022-10-28T00:40:05.504Z,101461.28
2022-10-28T00:44:54.346Z,101463.75
2022-10-28T00:49:21.025Z,101460.94
2022-10-28T00:53:33.414Z,101459.53
2022-10-28T00:57:46.114Z,101459.53
2022-10-28T01:01:57.849Z,101459.78
2022-10-28T01:06:10.543Z,101448.81
2022-10-28T01:10:38.292Z,101446.13
2022-10-28T01:15:08.430Z,101444.47
2022-10-28T01:19:33.675Z,101434.69
2022-10-28T01:24:39.557Z,101433.63
2022-10-28T01:29:18.840Z,101424.94
2022-10-28T01:33:42.976Z,101423.19
2022-10-28T01:38:14.061Z,101414.00
2022-10-28T01:42:34.313Z,101412.25
2022-10-28T01:46:55.998Z,101409.53
2022-10-28T01:51:27.002Z,101411.31
2022-10-28T01:55:42.177Z,101419.97
2022-10-28T01:59:54.220Z,101406.91
2022-10-28T02:04:05.748Z,101405.00
2022-10-28T02:08:25.916Z,101399.09
2022-10-28T02:12:38.635Z,101393.34
2022-10-28T02:16:56.293Z,101403.34
2022-10-28T02:21:55.335Z,101390.53
2022-10-28T02:26:22.022Z,101394.06
2022-10-28T02:30:44.446Z,101392.50
2022-10-28T02:35:00.144Z,101378.28
2022-10-28T02:39:11.708Z,101376.06
2022-10-28T02:43:25.168Z,101384.44
2022-10-28T02:47:42.644Z,101390.59
2022-10-28T02:52:00.057Z,101392.72
2022-10-28T02:56:14.708Z,101371.75
2022-10-28T03:00:26.284Z,101372.59
2022-10-28T03:04:37.743Z,101364.47
2022-10-28T03:08:49.228Z,101370.03
2022-10-28T03:13:00.728Z,101363.34
2022-10-28T03:17:12.221Z,101367.69
2022-10-28T03:21:23.724Z,101364.66
2022-10-28T03:25:35.193Z,101365.63
2022-10-28T03:29:46.653Z,101360.31
2022-10-28T03:33:58.202Z,101357.97
2022-10-28T03:38:09.720Z,101353.06
2022-10-28T03:42:21.197Z,101354.06
2022-10-28T03:46:35.169Z,101351.47
2022-10-28T03:50:47.641Z,101339.38
2022-10-28T03:55:23.868Z,101352.78
2022-10-28T03:59:35.441Z,101345.00
2022-10-28T04:03:47.001Z,101342.69
2022-10-28T04:07:58.516Z,101359.97
2022-10-28T04:12:10.973Z,101354.44
2022-10-28T04:16:22.505Z,101356.78
2022-10-28T04:20:34.029Z,101350.78
2022-10-28T04:24:45.494Z,101343.16
2022-10-28T04:28:57.217Z,101350.34
2022-10-28T04:33:12.088Z,101346.09
2022-10-28T04:37:23.844Z,101353.59
2022-10-28T04:41:35.438Z,101344.81
2022-10-28T04:45:47.318Z,101343.03
2022-10-28T04:49:58.808Z,101346.78
2022-10-28T04:54:10.382Z,101343.34
2022-10-28T04:58:21.893Z,101335.13
2022-10-28T05:02:33.398Z,101313.94
2022-10-28T05:06:44.983Z,101350.13
2022-10-28T05:10:56.549Z,101328.75
2022-10-28T05:15:09.090Z,101335.34
2022-10-28T05:19:20.600Z,101338.25
2022-10-28T05:23:32.122Z,101340.47
2022-10-28T05:27:43.668Z,101342.72
2022-10-28T05:31:55.250Z,101323.56
2022-10-28T05:36:06.949Z,101298.97
2022-10-28T05:40:18.499Z,101306.28
2022-10-28T05:44:30.014Z,101319.22
2022-10-28T05:48:41.548Z,101318.78
2022-10-28T05:52:55.553Z,101321.84
2022-10-28T05:57:07.082Z,101321.75
2022-10-28T06:01:18.578Z,101327.16
2022-10-28T06:05:30.066Z,101332.09
2022-10-28T06:09:41.535Z,101339.38
2022-10-28T06:13:51.481Z,101334.06
2022-10-28T06:18:03.149Z,101323.34
2022-10-28T06:22:14.724Z,101324.63
2022-10-28T06:26:26.202Z,101338.97
2022-10-28T06:30:37.714Z,101340.50
2022-10-28T06:34:49.206Z,101329.88
2022-10-28T06:39:00.852Z,101338.88
2022-10-28T06:43:12.984Z,101339.56
2022-10-28T06:47:26.102Z,101343.44
2022-10-28T06:51:37.586Z,101370.84
2022-10-28T06:55:56.612Z,101356.41
2022-10-28T07:00:08.973Z,101367.47
2022-10-28T07:04:20.483Z,101365.38
2022-10-28T07:08:32.596Z,101354.44
2022-10-28T07:12:44.116Z,101354.06
2022-10-28T07:16:55.651Z,101369.78
2022-10-28T07:21:07.137Z,101351.25
2022-10-28T07:25:18.625Z,101369.47
2022-10-28T07:29:30.185Z,101373.06
2022-10-28T07:33:41.649Z,101376.53
2022-10-28T07:37:53.509Z,101360.94
2022-10-28T07:42:05.041Z,101372.28
2022-10-28T07:46:17.662Z,101367.25
2022-10-28T07:50:29.196Z,101374.81
2022-10-28T07:54:40.791Z,101378.03
2022-10-28T07:58:52.323Z,101370.72
2022-10-28T08:03:03.820Z,101361.47
2022-10-28T08:07:15.826Z,101370.25
2022-10-28T08:11:27.345Z,101364.16
2022-10-28T08:15:38.798Z,101381.31
2022-10-28T08:19:50.313Z,101378.41
2022-10-28T08:24:01.872Z,101372.69
2022-10-28T08:28:13.352Z,101385.78
2022-10-28T08:32:24.924Z,101389.06
2022-10-28T08:36:36.473Z,101391.25
2022-10-28T08:41:12.823Z,101378.41
2022-10-28T08:45:53.868Z,101374.00
2022-10-28T08:50:11.261Z,101385.97
2022-10-28T08:54:54.910Z,101399.47
2022-10-28T08:59:10.623Z,101377.94
2022-10-28T09:03:39.230Z,101381.00
2022-10-28T09:07:52.201Z,101385.50
2022-10-28T09:12:13.157Z,101397.91
2022-10-28T09:16:39.470Z,101397.31
2022-10-28T09:20:54.959Z,101389.91
2022-10-28T09:25:32.244Z,101391.91
2022-10-28T09:30:05.673Z,101388.75
2022-10-28T09:34:52.805Z,101386.03
2022-10-28T09:39:07.124Z,101394.72
2022-10-28T09:43:18.532Z,101384.78
2022-10-28T09:47:40.506Z,101388.53
2022-10-28T09:52:16.436Z,101392.72
2022-10-28T09:56:29.541Z,101390.47
2022-10-28T10:00:41.187Z,101386.94
2022-10-28T10:04:54.091Z,101389.81
2022-10-28T10:09:05.619Z,101401.91
2022-10-28T10:13:22.397Z,101384.97
2022-10-28T10:17:39.734Z,101389.59
2022-10-28T10:21:54.187Z,101388.16
2022-10-28T10:26:11.242Z,101392.31
2022-10-28T10:30:30.636Z,101392.97
2022-10-28T10:34:54.204Z,101391.59
2022-10-28T10:39:21.824Z,101379.03
2022-10-28T10:43:35.610Z,101366.28
2022-10-28T10:47:47.172Z,101368.66
2022-10-28T10:52:01.561Z,101365.38
2022-10-28T10:56:15.569Z,101367.09
2022-10-28T11:00:35.762Z,101368.22
2022-10-28T11:04:53.387Z,101364.41
2022-10-28T11:09:25.015Z,101345.75
2022-10-28T11:13:40.044Z,101347.38
2022-10-28T11:18:20.622Z,101339.44
2022-10-28T11:23:12.647Z,101334.94
2022-10-28T11:28:04.359Z,101337.47
2022-10-28T11:32:25.671Z,101339.22
2022-10-28T11:36:55.972Z,101338.09
2022-10-28T11:41:25.396Z,101323.72
2022-10-28T11:46:19.879Z,101313.97
2022-10-28T11:50:50.055Z,101331.81
2022-10-28T11:55:25.779Z,101329.56
2022-10-28T11:59:56.046Z,101342.41
2022-10-28T12:04:20.464Z,101347.50
2022-10-28T12:08:42.551Z,101329.19
2022-10-28T12:12:58.219Z,101325.91
2022-10-28T12:17:19.619Z,101328.84
2022-10-28T12:21:37.563Z,101329.88
2022-10-28T12:25:52.489Z,101339.59
2022-10-28T12:30:16.263Z,101326.16
2022-10-28T12:34:34.063Z,101334.00
2022-10-28T12:38:55.883Z,101331.28
2022-10-28T12:43:24.935Z,101332.38
2022-10-28T12:47:43.348Z,101356.88
2022-10-28T12:52:01.747Z,101343.00
2022-10-28T12:56:26.213Z,101339.03
2022-10-28T13:00:44.274Z,101334.91
2022-10-28T13:04:57.696Z,101346.69
2022-10-28T13:09:37.875Z,101347.38
2022-10-28T13:14:16.471Z,101353.78
2022-10-28T13:18:52.751Z,101360.69
2022-10-28T13:23:10.119Z,101379.59
2022-10-28T13:27:22.820Z,101381.00
2022-10-28T13:31:37.370Z,101391.50
2022-10-28T13:35:50.727Z,101380.69
2022-10-28T13:40:02.450Z,101380.81
2022-10-28T13:44:24.020Z,101387.53
2022-10-28T13:48:41.447Z,101375.38
2022-10-28T13:53:23.918Z,101397.72
2022-10-28T13:57:37.960Z,101402.25
2022-10-28T14:02:07.837Z,101406.09
2022-10-28T14:06:34.921Z,101401.56
2022-10-28T14:11:21.734Z,101407.31
2022-10-28T14:15:40.803Z,101404.59
2022-10-28T14:19:53.541Z,101427.16
2022-10-28T14:24:12.197Z,101439.81
2022-10-28T14:28:29.662Z,101440.69
2022-10-28T14:32:57.234Z,101433.59
2022-10-28T14:37:28.437Z,101430.69
2022-10-28T14:42:05.088Z,101440.56
2022-10-28T14:46:45.577Z,101444.97
2022-10-28T14:51:00.151Z,101446.09
2022-10-28T14:55:31.027Z,101440.34
2022-10-28T14:59:44.100Z,101441.44
2022-10-28T15:04:02.287Z,101445.06
2022-10-28T15:08:13.822Z,101454.41
2022-10-28T15:12:26.171Z,101472.47
2022-10-28T15:16:47.761Z,101483.44
2022-10-28T15:21:19.914Z,101485.41
2022-10-28T15:25:31.386Z,101467.69
2022-10-28T15:29:43.519Z,101474.78
2022-10-28T15:33:55.023Z,101489.53
2022-10-28T15:38:34.554Z,101474.22
2022-10-28T15:42:53.688Z,101472.88
2022-10-28T15:47:25.456Z,101499.66
2022-10-28T15:51:37.033Z,101505.13
2022-10-28T15:56:09.447Z,101500.44
2022-10-28T16:00:27.499Z,101508.38
2022-10-28T16:04:45.982Z,101524.75
2022-10-28T16:09:20.651Z,101515.72
2022-10-28T16:13:36.889Z,101521.72
2022-10-28T16:17:48.748Z,101515.16
2022-10-28T16:22:00.281Z,101517.91
2022-10-28T16:26:12.390Z,101516.00
2022-10-28T16:30:23.926Z,101521.16
2022-10-28T16:34:35.428Z,101526.84
2022-10-28T16:38:46.981Z,101535.56
2022-10-28T16:42:58.546Z,101545.94
2022-10-28T16:47:14.868Z,101555.69
2022-10-28T16:51:26.390Z,101549.66
2022-10-28T16:55:38.185Z,101550.50
2022-10-28T16:59:49.940Z,101558.94
2022-10-28T17:04:01.639Z,101567.13
2022-10-28T17:08:13.772Z,101567.38
2022-10-28T17:12:27.249Z,101563.81
2022-10-28T17:16:40.710Z,101574.94
2022-10-28T17:21:02.462Z,101577.03
2022-10-28T17:25:14.330Z,101582.47
2022-10-28T17:29:26.225Z,101575.69
2022-10-28T17:33:37.714Z,101571.56
2022-10-28T17:37:49.241Z,101590.69
2022-10-28T17:42:00.727Z,101588.50
2022-10-28T17:46:12.263Z,101586.59
2022-10-28T17:50:23.713Z,101605.38
2022-10-28T17:54:35.188Z,101615.16
2022-10-28T17:58:46.855Z,101626.84
2022-10-28T18:02:58.471Z,101617.56
2022-10-28T18:07:10.027Z,101618.94
2022-10-28T18:11:21.499Z,101621.91
2022-10-28T18:15:36.638Z,101629.16
2022-10-28T18:19:48.121Z,101634.78
2022-10-28T18:24:03.879Z,101622.94
2022-10-28T18:28:17.535Z,101634.84
2022-10-28T18:32:29.015Z,101638.81
2022-10-28T18:36:40.512Z,101653.94
2022-10-28T18:40:52.016Z,101648.00
2022-10-28T18:45:05.438Z,101661.75
2022-10-28T18:49:16.931Z,101667.00
2022-10-28T18:53:28.653Z,101690.56
2022-10-28T18:57:40.157Z,101669.81
2022-10-28T19:01:51.772Z,101673.28
2022-10-28T19:06:06.325Z,101683.41
2022-10-28T19:10:17.918Z,101667.59
2022-10-28T19:14:29.446Z,101674.88
2022-10-28T19:18:41.004Z,101673.31
2022-10-28T19:22:52.885Z,101685.25
2022-10-28T19:27:04.770Z,101674.63
2022-10-28T19:31:19.213Z,101711.22
2022-10-28T19:35:32.870Z,101682.13
2022-10-28T19:39:44.376Z,101699.16
2022-10-28T19:44:00.532Z,101697.50
2022-10-28T19:48:12.033Z,101699.56
2022-10-28T19:52:23.616Z,101713.31
2022-10-28T19:56:35.662Z,101703.88
2022-10-28T20:00:47.156Z,101709.50
2022-10-28T20:04:58.686Z,101698.75
2022-10-28T20:09:10.237Z,101723.19
2022-10-28T20:13:21.779Z,101748.88
2022-10-28T20:17:33.277Z,101753.72
2022-10-28T20:21:45.131Z,101760.09
2022-10-28T20:25:56.690Z,101760.56
2022-10-28T20:30:08.705Z,101769.31
2022-10-28T20:34:21.832Z,101756.38
2022-10-28T20:38:33.628Z,101761.91
2022-10-28T20:42:45.168Z,101771.59
2022-10-28T20:46:56.682Z,101773.16
2022-10-28T20:51:09.227Z,101785.91
2022-10-28T20:55:20.796Z,101788.63
2022-10-28T20:59:32.332Z,101788.84
2022-10-28T21:03:44.548Z,101794.59
2022-10-28T21:07:56.427Z,101792.97
2022-10-28T21:12:08.224Z,101790.13
2022-10-28T21:16:20.189Z,101791.88
2022-10-28T21:20:32.500Z,101798.97
2022-10-28T21:24:44.003Z,101792.41
2022-10-28T21:28:56.300Z,101782.84
2022-10-28T21:33:07.811Z,101779.78
2022-10-28T21:37:19.518Z,101780.00
2022-10-28T21:41:31.276Z,101795.09
2022-10-28T21:45:42.736Z,101800.06
2022-10-28T21:49:54.257Z,101792.03
2022-10-28T21:54:05.785Z,101783.53
2022-10-28T21:58:17.894Z,101793.56
2022-10-28T22:02:29.511Z,101791.91
2022-10-28T22:06:41.240Z,101804.63
2022-10-28T22:11:00.996Z,101804.88
2022-10-28T22:15:12.504Z,101805.09
2022-10-28T22:19:24.121Z,101820.78
2022-10-28T22:23:36.699Z,101804.97
2022-10-28T22:27:48.195Z,101813.81
2022-10-28T22:31:59.667Z,101822.41
2022-10-28T22:36:16.331Z,101827.47
2022-10-28T22:40:29.340Z,101831.25
2022-10-28T22:44:40.832Z,101821.91
2022-10-28T22:48:52.765Z,101834.19
2022-10-28T22:53:04.566Z,101832.06
2022-10-28T22:57:16.041Z,101837.09
2022-10-28T23:01:29.013Z,101847.19
2022-10-28T23:05:40.970Z,101853.09
2022-10-28T23:09:52.474Z,101843.41
2022-10-28T23:14:04.095Z,101827.16
2022-10-28T23:18:15.574Z,101829.84
2022-10-28T23:22:28.877Z,101836.56
2022-10-28T23:26:42.071Z,101829.00
2022-10-28T23:30:53.578Z,101820.91
2022-10-28T23:35:06.023Z,101826.06
2022-10-28T23:39:17.525Z,101830.94
2022-10-28T23:43:29.971Z,101829.63
2022-10-28T23:47:42.057Z,101835.09
2022-10-28T23:51:53.570Z,101825.88
2022-10-28T23:56:05.941Z,101838.19
